sensor_id;sensor_type;location;lat;lon;timestamp;P1;durP1;ratioP1;P2;durP2;ratioP2
51006;SDS011;37034;47.886;-3.904;2023-05-14T00:01:40;27.63;;;16.43;;
51006;SDS011;37034;47.886;-3.904;2023-05-14T00:04:06;24.52;;;16.27;;
51006;SDS011;37034;47.886;-3.904;2023-05-14T00:06:32;25.65;;;16.77;;
51006;SDS011;37034;47.886;-3.904;2023-05-14T00:08:57;22.00;;;15.10;;
51006;SDS011;37034;47.886;-3.904;2023-05-14T00:11:23;23.90;;;15.70;;
51006;SDS011;37034;47.886;-3.904;2023-05-14T00:13:49;26.97;;;15.53;;
51006;SDS011;37034;47.886;-3.904;2023-05-14T00:16:15;31.05;;;16.13;;
51006;SDS011;37034;47.886;-3.904;2023-05-14T00:18:40;23.17;;;16.07;;
51006;SDS011;37034;47.886;-3.904;2023-05-14T00:21:06;25.93;;;17.03;;
51006;SDS011;37034;47.886;-3.904;2023-05-14T00:23:32;27.10;;;17.17;;
51006;SDS011;37034;47.886;-3.904;2023-05-14T00:25:57;27.85;;;17.00;;
51006;SDS011;37034;47.886;-3.904;2023-05-14T00:28:23;24.47;;;17.27;;
51006;SDS011;37034;47.886;-3.904;2023-05-14T00:30:49;25.63;;;16.40;;
51006;SDS011;37034;47.886;-3.904;2023-05-14T00:33:15;25.08;;;16.90;;
51006;SDS011;37034;47.886;-3.904;2023-05-14T00:35:41;27.48;;;16.80;;
51006;SDS011;37034;47.886;-3.904;2023-05-14T00:38:07;23.20;;;15.97;;
51006;SDS011;37034;47.886;-3.904;2023-05-14T00:40:33;25.63;;;15.60;;
51006;SDS011;37034;47.886;-3.904;2023-05-14T00:42:58;22.90;;;15.67;;
51006;SDS011;37034;47.886;-3.904;2023-05-14T00:45:24;24.47;;;16.10;;
51006;SDS011;37034;47.886;-3.904;2023-05-14T00:47:50;23.70;;;15.80;;
51006;SDS011;37034;47.886;-3.904;2023-05-14T00:50:17;22.95;;;15.65;;
51006;SDS011;37034;47.886;-3.904;2023-05-14T00:52:43;23.53;;;16.20;;
51006;SDS011;37034;47.886;-3.904;2023-05-14T00:55:09;25.95;;;16.08;;
51006;SDS011;37034;47.886;-3.904;2023-05-14T00:57:37;25.65;;;16.88;;
51006;SDS011;37034;47.886;-3.904;2023-05-14T01:00:03;24.45;;;16.40;;
51006;SDS011;37034;47.886;-3.904;2023-05-14T01:02:29;22.10;;;15.52;;
51006;SDS011;37034;47.886;-3.904;2023-05-14T01:04:55;27.13;;;17.25;;
51006;SDS011;37034;47.886;-3.904;2023-05-14T01:15:40;29.10;;;16.30;;
51006;SDS011;37034;47.886;-3.904;2023-05-14T01:18:09;26.33;;;16.92;;
51006;SDS011;37034;47.886;-3.904;2023-05-14T01:20:37;23.83;;;16.02;;
51006;SDS011;37034;47.886;-3.904;2023-05-14T01:23:03;27.50;;;16.40;;
51006;SDS011;37034;47.886;-3.904;2023-05-14T01:25:29;27.63;;;15.80;;
51006;SDS011;37034;47.886;-3.904;2023-05-14T01:30:35;27.13;;;15.88;;
51006;SDS011;37034;47.886;-3.904;2023-05-14T01:33:11;22.67;;;15.90;;
51006;SDS011;37034;47.886;-3.904;2023-05-14T01:35:40;26.45;;;15.50;;
51006;SDS011;37034;47.886;-3.904;2023-05-14T01:38:07;24.80;;;15.75;;
51006;SDS011;37034;47.886;-3.904;2023-05-14T01:40:38;22.20;;;15.27;;
51006;SDS011;37034;47.886;-3.904;2023-05-14T01:43:04;27.02;;;15.15;;
51006;SDS011;37034;47.886;-3.904;2023-05-14T01:45:30;25.80;;;15.73;;
51006;SDS011;37034;47.886;-3.904;2023-05-14T01:47:58;31.20;;;16.38;;
51006;SDS011;37034;47.886;-3.904;2023-05-14T01:50:24;22.25;;;15.80;;
51006;SDS011;37034;47.886;-3.904;2023-05-14T01:52:50;24.42;;;16.38;;
51006;SDS011;37034;47.886;-3.904;2023-05-14T01:55:20;25.10;;;16.02;;
51006;SDS011;37034;47.886;-3.904;2023-05-14T01:57:46;24.92;;;15.30;;
51006;SDS011;37034;47.886;-3.904;2023-05-14T02:00:12;24.33;;;15.77;;
51006;SDS011;37034;47.886;-3.904;2023-05-14T02:02:38;27.80;;;15.05;;
51006;SDS011;37034;47.886;-3.904;2023-05-14T02:05:04;24.20;;;14.40;;
51006;SDS011;37034;47.886;-3.904;2023-05-14T02:07:30;23.42;;;15.63;;
51006;SDS011;37034;47.886;-3.904;2023-05-14T02:09:56;25.10;;;15.47;;
51006;SDS011;37034;47.886;-3.904;2023-05-14T02:12:21;26.13;;;15.33;;
51006;SDS011;37034;47.886;-3.904;2023-05-14T02:14:47;25.03;;;14.57;;
51006;SDS011;37034;47.886;-3.904;2023-05-14T02:17:13;20.37;;;13.97;;
51006;SDS011;37034;47.886;-3.904;2023-05-14T02:19:42;22.95;;;14.27;;
51006;SDS011;37034;47.886;-3.904;2023-05-14T02:22:08;22.65;;;14.10;;
51006;SDS011;37034;47.886;-3.904;2023-05-14T02:24:34;23.33;;;14.32;;
51006;SDS011;37034;47.886;-3.904;2023-05-14T02:27:00;23.23;;;15.23;;
51006;SDS011;37034;47.886;-3.904;2023-05-14T02:29:26;20.25;;;13.70;;
51006;SDS011;37034;47.886;-3.904;2023-05-14T02:31:51;20.77;;;13.52;;
51006;SDS011;37034;47.886;-3.904;2023-05-14T02:34:17;18.37;;;13.03;;
51006;SDS011;37034;47.886;-3.904;2023-05-14T02:36:43;23.43;;;13.80;;
51006;SDS011;37034;47.886;-3.904;2023-05-14T02:39:08;29.63;;;14.23;;
51006;SDS011;37034;47.886;-3.904;2023-05-14T02:41:34;20.08;;;13.45;;
51006;SDS011;37034;47.886;-3.904;2023-05-14T02:44:00;18.67;;;12.83;;
51006;SDS011;37034;47.886;-3.904;2023-05-14T02:46:25;24.33;;;13.13;;
51006;SDS011;37034;47.886;-3.904;2023-05-14T02:48:51;19.87;;;13.97;;
51006;SDS011;37034;47.886;-3.904;2023-05-14T02:51:18;23.60;;;14.33;;
51006;SDS011;37034;47.886;-3.904;2023-05-14T02:53:45;18.27;;;13.20;;
51006;SDS011;37034;47.886;-3.904;2023-05-14T02:56:11;26.25;;;13.85;;
51006;SDS011;37034;47.886;-3.904;2023-05-14T02:58:36;22.10;;;13.43;;
51006;SDS011;37034;47.886;-3.904;2023-05-14T03:01:02;26.67;;;14.83;;
51006;SDS011;37034;47.886;-3.904;2023-05-14T03:03:28;24.65;;;14.25;;
51006;SDS011;37034;47.886;-3.904;2023-05-14T03:05:54;19.63;;;13.70;;
51006;SDS011;37034;47.886;-3.904;2023-05-14T03:08:20;21.10;;;13.50;;
51006;SDS011;37034;47.886;-3.904;2023-05-14T03:10:46;21.70;;;13.83;;
51006;SDS011;37034;47.886;-3.904;2023-05-14T03:13:11;20.70;;;15.07;;
51006;SDS011;37034;47.886;-3.904;2023-05-14T03:15:41;21.55;;;14.88;;
51006;SDS011;37034;47.886;-3.904;2023-05-14T03:18:07;26.83;;;16.60;;
51006;SDS011;37034;47.886;-3.904;2023-05-14T03:20:33;22.67;;;16.33;;
51006;SDS011;37034;47.886;-3.904;2023-05-14T03:22:59;21.40;;;16.47;;
51006;SDS011;37034;47.886;-3.904;2023-05-14T03:25:24;18.40;;;14.83;;
51006;SDS011;37034;47.886;-3.904;2023-05-14T03:27:50;21.58;;;15.43;;
51006;SDS011;37034;47.886;-3.904;2023-05-14T03:30:16;21.45;;;14.48;;
51006;SDS011;37034;47.886;-3.904;2023-05-14T03:32:42;17.43;;;14.40;;
51006;SDS011;37034;47.886;-3.904;2023-05-14T03:35:07;20.83;;;15.25;;
51006;SDS011;37034;47.886;-3.904;2023-05-14T03:37:33;18.23;;;14.55;;
51006;SDS011;37034;47.886;-3.904;2023-05-14T03:39:59;15.93;;;14.23;;
51006;SDS011;37034;47.886;-3.904;2023-05-14T03:42:25;17.47;;;14.37;;
51006;SDS011;37034;47.886;-3.904;2023-05-14T03:44:51;18.45;;;15.02;;
51006;SDS011;37034;47.886;-3.904;2023-05-14T03:47:16;19.87;;;15.00;;
51006;SDS011;37034;47.886;-3.904;2023-05-14T03:49:42;16.20;;;14.33;;
51006;SDS011;37034;47.886;-3.904;2023-05-14T03:52:08;19.90;;;15.07;;
51006;SDS011;37034;47.886;-3.904;2023-05-14T03:54:33;22.30;;;15.47;;
51006;SDS011;37034;47.886;-3.904;2023-05-14T03:56:59;22.48;;;14.32;;
51006;SDS011;37034;47.886;-3.904;2023-05-14T03:59:26;17.25;;;14.57;;
51006;SDS011;37034;47.886;-3.904;2023-05-14T04:01:51;13.70;;;11.20;;
51006;SDS011;37034;47.886;-3.904;2023-05-14T04:04:17;21.90;;;15.20;;
51006;SDS011;37034;47.886;-3.904;2023-05-14T04:06:43;19.33;;;15.20;;
51006;SDS011;37034;47.886;-3.904;2023-05-14T04:09:09;20.85;;;15.45;;
51006;SDS011;37034;47.886;-3.904;2023-05-14T04:11:35;19.25;;;15.98;;
51006;SDS011;37034;47.886;-3.904;2023-05-14T04:14:01;21.27;;;16.13;;
51006;SDS011;37034;47.886;-3.904;2023-05-14T04:16:27;19.37;;;15.03;;
51006;SDS011;37034;47.886;-3.904;2023-05-14T04:18:52;21.67;;;17.10;;
51006;SDS011;37034;47.886;-3.904;2023-05-14T04:21:18;18.97;;;16.00;;
51006;SDS011;37034;47.886;-3.904;2023-05-14T04:23:44;19.47;;;15.97;;
51006;SDS011;37034;47.886;-3.904;2023-05-14T04:26:10;21.50;;;17.07;;
51006;SDS011;37034;47.886;-3.904;2023-05-14T04:28:35;17.53;;;14.30;;
51006;SDS011;37034;47.886;-3.904;2023-05-14T04:31:01;21.90;;;16.53;;
51006;SDS011;37034;47.886;-3.904;2023-05-14T04:33:27;23.95;;;18.10;;
51006;SDS011;37034;47.886;-3.904;2023-05-14T04:35:53;21.98;;;16.83;;
51006;SDS011;37034;47.886;-3.904;2023-05-14T04:38:19;23.58;;;16.80;;
51006;SDS011;37034;47.886;-3.904;2023-05-14T04:40:45;21.83;;;16.70;;
51006;SDS011;37034;47.886;-3.904;2023-05-14T04:43:11;22.73;;;16.93;;
51006;SDS011;37034;47.886;-3.904;2023-05-14T04:45:36;21.80;;;16.47;;
51006;SDS011;37034;47.886;-3.904;2023-05-14T04:48:02;21.20;;;16.83;;
51006;SDS011;37034;47.886;-3.904;2023-05-14T04:50:29;22.33;;;17.25;;
51006;SDS011;37034;47.886;-3.904;2023-05-14T04:52:54;20.90;;;16.40;;
51006;SDS011;37034;47.886;-3.904;2023-05-14T04:55:20;21.83;;;16.80;;
51006;SDS011;37034;47.886;-3.904;2023-05-14T04:57:46;24.65;;;16.23;;
51006;SDS011;37034;47.886;-3.904;2023-05-14T05:00:13;20.20;;;15.38;;
51006;SDS011;37034;47.886;-3.904;2023-05-14T05:02:39;22.35;;;16.42;;
51006;SDS011;37034;47.886;-3.904;2023-05-14T05:05:05;22.40;;;16.48;;
51006;SDS011;37034;47.886;-3.904;2023-05-14T05:07:31;20.08;;;15.27;;
51006;SDS011;37034;47.886;-3.904;2023-05-14T05:09:56;16.07;;;12.70;;
51006;SDS011;37034;47.886;-3.904;2023-05-14T05:12:22;19.47;;;15.63;;
51006;SDS011;37034;47.886;-3.904;2023-05-14T05:14:48;23.77;;;16.10;;
51006;SDS011;37034;47.886;-3.904;2023-05-14T05:17:13;19.17;;;15.73;;
51006;SDS011;37034;47.886;-3.904;2023-05-14T05:19:39;23.63;;;16.30;;
51006;SDS011;37034;47.886;-3.904;2023-05-14T05:22:05;21.33;;;15.43;;
51006;SDS011;37034;47.886;-3.904;2023-05-14T05:24:30;21.00;;;16.53;;
51006;SDS011;37034;47.886;-3.904;2023-05-14T05:26:56;20.50;;;16.67;;
51006;SDS011;37034;47.886;-3.904;2023-05-14T05:29:22;19.50;;;14.70;;
51006;SDS011;37034;47.886;-3.904;2023-05-14T05:31:48;19.40;;;15.80;;
51006;SDS011;37034;47.886;-3.904;2023-05-14T05:34:14;20.97;;;15.73;;
51006;SDS011;37034;47.886;-3.904;2023-05-14T05:36:39;21.23;;;15.13;;
51006;SDS011;37034;47.886;-3.904;2023-05-14T05:39:05;21.37;;;15.17;;
51006;SDS011;37034;47.886;-3.904;2023-05-14T05:41:31;19.45;;;15.65;;
51006;SDS011;37034;47.886;-3.904;2023-05-14T05:43:56;20.67;;;15.17;;
51006;SDS011;37034;47.886;-3.904;2023-05-14T05:46:22;17.40;;;14.67;;
51006;SDS011;37034;47.886;-3.904;2023-05-14T05:48:48;18.87;;;15.70;;
51006;SDS011;37034;47.886;-3.904;2023-05-14T05:51:13;19.07;;;15.70;;
51006;SDS011;37034;47.886;-3.904;2023-05-14T05:53:39;21.27;;;15.93;;
51006;SDS011;37034;47.886;-3.904;2023-05-14T05:56:05;17.77;;;15.20;;
51006;SDS011;37034;47.886;-3.904;2023-05-14T05:58:32;18.98;;;14.85;;
51006;SDS011;37034;47.886;-3.904;2023-05-14T06:03:23;22.90;;;15.60;;
51006;SDS011;37034;47.886;-3.904;2023-05-14T06:05:49;21.27;;;15.88;;
51006;SDS011;37034;47.886;-3.904;2023-05-14T06:08:16;21.98;;;15.80;;
51006;SDS011;37034;47.886;-3.904;2023-05-14T06:10:42;18.10;;;14.38;;
51006;SDS011;37034;47.886;-3.904;2023-05-14T06:13:07;19.50;;;15.10;;
51006;SDS011;37034;47.886;-3.904;2023-05-14T06:15:33;20.30;;;15.40;;
51006;SDS011;37034;47.886;-3.904;2023-05-14T06:17:59;18.90;;;14.97;;
51006;SDS011;37034;47.886;-3.904;2023-05-14T06:20:24;26.37;;;15.47;;
51006;SDS011;37034;47.886;-3.904;2023-05-14T06:22:50;21.83;;;15.03;;
51006;SDS011;37034;47.886;-3.904;2023-05-14T06:25:16;18.30;;;13.83;;
51006;SDS011;37034;47.886;-3.904;2023-05-14T06:27:41;19.27;;;13.77;;
51006;SDS011;37034;47.886;-3.904;2023-05-14T06:30:07;19.10;;;13.60;;
51006;SDS011;37034;47.886;-3.904;2023-05-14T06:32:35;15.90;;;11.43;;
51006;SDS011;37034;47.886;-3.904;2023-05-14T06:35:00;17.35;;;12.02;;
51006;SDS011;37034;47.886;-3.904;2023-05-14T06:37:26;14.52;;;11.85;;
51006;SDS011;37034;47.886;-3.904;2023-05-14T06:39:52;17.23;;;12.07;;
51006;SDS011;37034;47.886;-3.904;2023-05-14T06:42:18;16.13;;;11.70;;
51006;SDS011;37034;47.886;-3.904;2023-05-14T06:44:43;18.20;;;12.47;;
51006;SDS011;37034;47.886;-3.904;2023-05-14T06:47:09;15.80;;;12.20;;
51006;SDS011;37034;47.886;-3.904;2023-05-14T06:49:35;18.27;;;11.37;;
51006;SDS011;37034;47.886;-3.904;2023-05-14T06:52:01;16.15;;;11.35;;
51006;SDS011;37034;47.886;-3.904;2023-05-14T06:56:53;18.20;;;11.85;;
51006;SDS011;37034;47.886;-3.904;2023-05-14T06:59:19;15.75;;;10.10;;
51006;SDS011;37034;47.886;-3.904;2023-05-14T07:01:44;12.50;;;9.87;;
51006;SDS011;37034;47.886;-3.904;2023-05-14T07:04:10;13.43;;;9.83;;
51006;SDS011;37034;47.886;-3.904;2023-05-14T07:06:36;21.90;;;11.77;;
51006;SDS011;37034;47.886;-3.904;2023-05-14T07:09:02;15.63;;;9.90;;
51006;SDS011;37034;47.886;-3.904;2023-05-14T07:11:27;17.02;;;10.23;;
51006;SDS011;37034;47.886;-3.904;2023-05-14T07:13:53;15.75;;;9.18;;
51006;SDS011;37034;47.886;-3.904;2023-05-14T07:16:19;13.13;;;8.68;;
51006;SDS011;37034;47.886;-3.904;2023-05-14T07:18:45;14.30;;;8.13;;
51006;SDS011;37034;47.886;-3.904;2023-05-14T07:21:11;15.63;;;7.57;;
51006;SDS011;37034;47.886;-3.904;2023-05-14T07:23:36;9.55;;;6.93;;
51006;SDS011;37034;47.886;-3.904;2023-05-14T07:26:03;13.70;;;7.88;;
51006;SDS011;37034;47.886;-3.904;2023-05-14T07:28:30;9.75;;;6.88;;
51006;SDS011;37034;47.886;-3.904;2023-05-14T07:30:56;10.23;;;6.47;;
51006;SDS011;37034;47.886;-3.904;2023-05-14T07:33:21;10.88;;;6.65;;
51006;SDS011;37034;47.886;-3.904;2023-05-14T07:35:48;10.52;;;6.50;;
51006;SDS011;37034;47.886;-3.904;2023-05-14T07:38:13;11.57;;;6.68;;
51006;SDS011;37034;47.886;-3.904;2023-05-14T07:40:39;10.43;;;6.80;;
51006;SDS011;37034;47.886;-3.904;2023-05-14T07:43:05;11.20;;;6.88;;
51006;SDS011;37034;47.886;-3.904;2023-05-14T07:45:31;12.20;;;7.13;;
51006;SDS011;37034;47.886;-3.904;2023-05-14T07:47:56;10.38;;;6.45;;
51006;SDS011;37034;47.886;-3.904;2023-05-14T07:50:22;12.37;;;6.47;;
51006;SDS011;37034;47.886;-3.904;2023-05-14T07:52:49;11.18;;;6.65;;
51006;SDS011;37034;47.886;-3.904;2023-05-14T07:55:15;9.00;;;5.70;;
51006;SDS011;37034;47.886;-3.904;2023-05-14T07:57:40;12.20;;;5.88;;
51006;SDS011;37034;47.886;-3.904;2023-05-14T08:00:06;9.32;;;5.75;;
51006;SDS011;37034;47.886;-3.904;2023-05-14T08:02:32;10.13;;;6.38;;
51006;SDS011;37034;47.886;-3.904;2023-05-14T08:04:58;10.02;;;6.45;;
51006;SDS011;37034;47.886;-3.904;2023-05-14T08:07:24;9.05;;;6.50;;
51006;SDS011;37034;47.886;-3.904;2023-05-14T08:09:51;10.90;;;6.97;;
51006;SDS011;37034;47.886;-3.904;2023-05-14T08:12:17;15.25;;;8.63;;
51006;SDS011;37034;47.886;-3.904;2023-05-14T08:14:43;13.52;;;8.10;;
51006;SDS011;37034;47.886;-3.904;2023-05-14T08:17:08;12.30;;;7.75;;
51006;SDS011;37034;47.886;-3.904;2023-05-14T08:19:34;11.63;;;7.05;;
51006;SDS011;37034;47.886;-3.904;2023-05-14T08:22:00;11.82;;;7.45;;
51006;SDS011;37034;47.886;-3.904;2023-05-14T08:24:25;15.10;;;8.50;;
51006;SDS011;37034;47.886;-3.904;2023-05-14T08:26:51;10.52;;;8.13;;
51006;SDS011;37034;47.886;-3.904;2023-05-14T08:29:17;11.15;;;7.32;;
51006;SDS011;37034;47.886;-3.904;2023-05-14T08:31:42;13.32;;;7.93;;
51006;SDS011;37034;47.886;-3.904;2023-05-14T08:34:08;11.45;;;7.47;;
51006;SDS011;37034;47.886;-3.904;2023-05-14T08:36:34;10.57;;;7.72;;
51006;SDS011;37034;47.886;-3.904;2023-05-14T08:38:59;15.15;;;8.43;;
51006;SDS011;37034;47.886;-3.904;2023-05-14T08:41:25;11.85;;;7.90;;
51006;SDS011;37034;47.886;-3.904;2023-05-14T08:46:23;11.27;;;7.80;;
51006;SDS011;37034;47.886;-3.904;2023-05-14T08:48:55;13.93;;;9.40;;
51006;SDS011;37034;47.886;-3.904;2023-05-14T08:51:25;12.07;;;8.68;;
51006;SDS011;37034;47.886;-3.904;2023-05-14T08:53:51;15.68;;;9.50;;
51006;SDS011;37034;47.886;-3.904;2023-05-14T08:56:17;13.05;;;9.00;;
51006;SDS011;37034;47.886;-3.904;2023-05-14T08:58:43;10.88;;;9.30;;
51006;SDS011;37034;47.886;-3.904;2023-05-14T09:03:35;17.77;;;9.65;;
51006;SDS011;37034;47.886;-3.904;2023-05-14T09:06:02;17.60;;;8.55;;
51006;SDS011;37034;47.886;-3.904;2023-05-14T09:08:29;14.02;;;9.40;;
51006;SDS011;37034;47.886;-3.904;2023-05-14T09:11:00;14.35;;;9.20;;
51006;SDS011;37034;47.886;-3.904;2023-05-14T09:13:26;11.48;;;8.82;;
51006;SDS011;37034;47.886;-3.904;2023-05-14T09:15:51;11.57;;;8.20;;
51006;SDS011;37034;47.886;-3.904;2023-05-14T09:18:18;16.42;;;9.73;;
51006;SDS011;37034;47.886;-3.904;2023-05-14T09:20:45;16.08;;;8.18;;
51006;SDS011;37034;47.886;-3.904;2023-05-14T09:23:13;10.90;;;7.45;;
51006;SDS011;37034;47.886;-3.904;2023-05-14T09:25:39;10.85;;;7.93;;
51006;SDS011;37034;47.886;-3.904;2023-05-14T09:28:07;15.95;;;8.60;;
51006;SDS011;37034;47.886;-3.904;2023-05-14T09:30:33;10.43;;;7.70;;
51006;SDS011;37034;47.886;-3.904;2023-05-14T09:33:00;10.80;;;7.45;;
51006;SDS011;37034;47.886;-3.904;2023-05-14T09:35:28;11.48;;;8.00;;
51006;SDS011;37034;47.886;-3.904;2023-05-14T09:37:54;14.88;;;7.70;;
51006;SDS011;37034;47.886;-3.904;2023-05-14T09:40:20;12.95;;;8.32;;
51006;SDS011;37034;47.886;-3.904;2023-05-14T09:42:47;14.18;;;8.10;;
51006;SDS011;37034;47.886;-3.904;2023-05-14T09:45:13;13.63;;;8.15;;
51006;SDS011;37034;47.886;-3.904;2023-05-14T09:47:40;13.10;;;8.65;;
51006;SDS011;37034;47.886;-3.904;2023-05-14T09:50:08;10.18;;;7.75;;
51006;SDS011;37034;47.886;-3.904;2023-05-14T09:52:34;13.88;;;9.38;;
51006;SDS011;37034;47.886;-3.904;2023-05-14T09:55:01;16.60;;;9.13;;
51006;SDS011;37034;47.886;-3.904;2023-05-14T09:57:27;17.20;;;9.73;;
51006;SDS011;37034;47.886;-3.904;2023-05-14T09:59:53;10.02;;;7.22;;
51006;SDS011;37034;47.886;-3.904;2023-05-14T10:02:34;14.82;;;7.05;;
51006;SDS011;37034;47.886;-3.904;2023-05-14T10:05:05;14.32;;;7.90;;
51006;SDS011;37034;47.886;-3.904;2023-05-14T10:07:38;11.65;;;7.03;;
51006;SDS011;37034;47.886;-3.904;2023-05-14T10:10:09;11.10;;;7.53;;
51006;SDS011;37034;47.886;-3.904;2023-05-14T10:12:39;15.00;;;6.82;;
51006;SDS011;37034;47.886;-3.904;2023-05-14T10:15:11;15.45;;;9.45;;
51006;SDS011;37034;47.886;-3.904;2023-05-14T10:17:57;18.75;;;7.68;;
51006;SDS011;37034;47.886;-3.904;2023-05-14T10:20:26;10.73;;;7.28;;
51006;SDS011;37034;47.886;-3.904;2023-05-14T10:25:18;14.40;;;7.30;;
51006;SDS011;37034;47.886;-3.904;2023-05-14T10:30:10;10.70;;;6.30;;
51006;SDS011;37034;47.886;-3.904;2023-05-14T10:32:39;12.82;;;6.93;;
51006;SDS011;37034;47.886;-3.904;2023-05-14T10:35:15;9.82;;;6.30;;
51006;SDS011;37034;47.886;-3.904;2023-05-14T10:37:49;11.23;;;6.40;;
51006;SDS011;37034;47.886;-3.904;2023-05-14T10:40:15;8.80;;;5.72;;
51006;SDS011;37034;47.886;-3.904;2023-05-14T10:42:42;10.95;;;5.18;;
51006;SDS011;37034;47.886;-3.904;2023-05-14T10:45:10;9.30;;;5.20;;
51006;SDS011;37034;47.886;-3.904;2023-05-14T10:47:38;10.85;;;5.38;;
51006;SDS011;37034;47.886;-3.904;2023-05-14T10:50:07;10.02;;;5.03;;
51006;SDS011;37034;47.886;-3.904;2023-05-14T10:52:35;11.27;;;5.60;;
51006;SDS011;37034;47.886;-3.904;2023-05-14T10:55:02;9.20;;;4.97;;
51006;SDS011;37034;47.886;-3.904;2023-05-14T10:57:32;12.88;;;6.75;;
51006;SDS011;37034;47.886;-3.904;2023-05-14T11:00:00;9.30;;;5.97;;
51006;SDS011;37034;47.886;-3.904;2023-05-14T11:02:27;10.93;;;6.25;;
51006;SDS011;37034;47.886;-3.904;2023-05-14T11:10:03;9.63;;;7.47;;
51006;SDS011;37034;47.886;-3.904;2023-05-14T11:12:34;14.32;;;7.53;;
51006;SDS011;37034;47.886;-3.904;2023-05-14T11:15:02;11.25;;;7.70;;
51006;SDS011;37034;47.886;-3.904;2023-05-14T11:17:29;8.25;;;6.65;;
51006;SDS011;37034;47.886;-3.904;2023-05-14T11:22:22;14.52;;;7.22;;
51006;SDS011;37034;47.886;-3.904;2023-05-14T11:24:48;8.95;;;5.85;;
51006;SDS011;37034;47.886;-3.904;2023-05-14T11:27:14;11.07;;;6.47;;
51006;SDS011;37034;47.886;-3.904;2023-05-14T11:29:44;8.38;;;5.95;;
51006;SDS011;37034;47.886;-3.904;2023-05-14T11:32:11;8.95;;;5.80;;
51006;SDS011;37034;47.886;-3.904;2023-05-14T11:34:37;8.80;;;6.10;;
51006;SDS011;37034;47.886;-3.904;2023-05-14T11:37:04;9.30;;;6.45;;
51006;SDS011;37034;47.886;-3.904;2023-05-14T11:39:31;11.10;;;5.72;;
51006;SDS011;37034;47.886;-3.904;2023-05-14T11:41:57;7.53;;;4.50;;
51006;SDS011;37034;47.886;-3.904;2023-05-14T11:44:23;13.52;;;4.85;;
51006;SDS011;37034;47.886;-3.904;2023-05-14T11:46:53;9.23;;;5.43;;
51006;SDS011;37034;47.886;-3.904;2023-05-14T11:49:25;7.25;;;4.80;;
51006;SDS011;37034;47.886;-3.904;2023-05-14T11:51:59;8.65;;;4.78;;
51006;SDS011;37034;47.886;-3.904;2023-05-14T11:54:29;9.10;;;4.82;;
51006;SDS011;37034;47.886;-3.904;2023-05-14T11:56:56;6.55;;;4.38;;
51006;SDS011;37034;47.886;-3.904;2023-05-14T11:59:24;8.52;;;5.35;;
51006;SDS011;37034;47.886;-3.904;2023-05-14T12:01:55;6.88;;;4.55;;
51006;SDS011;37034;47.886;-3.904;2023-05-14T12:04:21;7.88;;;4.28;;
51006;SDS011;37034;47.886;-3.904;2023-05-14T12:06:47;10.52;;;4.45;;
51006;SDS011;37034;47.886;-3.904;2023-05-14T12:09:20;7.63;;;4.22;;
51006;SDS011;37034;47.886;-3.904;2023-05-14T12:11:47;10.02;;;5.50;;
51006;SDS011;37034;47.886;-3.904;2023-05-14T12:14:21;8.20;;;5.57;;
51006;SDS011;37034;47.886;-3.904;2023-05-14T12:16:48;8.13;;;5.35;;
51006;SDS011;37034;47.886;-3.904;2023-05-14T12:19:18;8.63;;;5.10;;
51006;SDS011;37034;47.886;-3.904;2023-05-14T12:21:47;7.80;;;4.55;;
51006;SDS011;37034;47.886;-3.904;2023-05-14T12:24:16;7.95;;;5.25;;
51006;SDS011;37034;47.886;-3.904;2023-05-14T12:26:43;9.90;;;4.57;;
51006;SDS011;37034;47.886;-3.904;2023-05-14T12:29:13;11.60;;;5.55;;
51006;SDS011;37034;47.886;-3.904;2023-05-14T12:31:46;6.47;;;4.65;;
51006;SDS011;37034;47.886;-3.904;2023-05-14T12:34:13;7.60;;;5.25;;
51006;SDS011;37034;47.886;-3.904;2023-05-14T12:36:39;11.50;;;5.30;;
51006;SDS011;37034;47.886;-3.904;2023-05-14T12:39:05;6.82;;;4.70;;
51006;SDS011;37034;47.886;-3.904;2023-05-14T12:41:31;6.55;;;4.28;;
51006;SDS011;37034;47.886;-3.904;2023-05-14T12:46:24;6.68;;;4.85;;
51006;SDS011;37034;47.886;-3.904;2023-05-14T12:48:51;6.93;;;4.18;;
51006;SDS011;37034;47.886;-3.904;2023-05-14T12:51:18;6.28;;;4.07;;
51006;SDS011;37034;47.886;-3.904;2023-05-14T12:53:44;10.20;;;3.80;;
51006;SDS011;37034;47.886;-3.904;2023-05-14T12:56:10;7.00;;;4.40;;
51006;SDS011;37034;47.886;-3.904;2023-05-14T12:58:36;7.35;;;4.35;;
51006;SDS011;37034;47.886;-3.904;2023-05-14T13:01:02;7.25;;;4.13;;
51006;SDS011;37034;47.886;-3.904;2023-05-14T13:03:28;6.63;;;4.00;;
51006;SDS011;37034;47.886;-3.904;2023-05-14T13:05:54;6.53;;;4.22;;
51006;SDS011;37034;47.886;-3.904;2023-05-14T13:08:20;8.95;;;4.10;;
51006;SDS011;37034;47.886;-3.904;2023-05-14T13:10:54;8.43;;;4.88;;
51006;SDS011;37034;47.886;-3.904;2023-05-14T13:13:20;8.70;;;5.00;;
51006;SDS011;37034;47.886;-3.904;2023-05-14T13:15:47;5.97;;;4.32;;
51006;SDS011;37034;47.886;-3.904;2023-05-14T13:18:13;6.90;;;5.15;;
51006;SDS011;37034;47.886;-3.904;2023-05-14T13:20:39;9.25;;;4.88;;
51006;SDS011;37034;47.886;-3.904;2023-05-14T13:23:05;8.20;;;4.72;;
51006;SDS011;37034;47.886;-3.904;2023-05-14T13:25:31;10.85;;;7.13;;
51006;SDS011;37034;47.886;-3.904;2023-05-14T13:27:57;13.30;;;8.13;;
51006;SDS011;37034;47.886;-3.904;2023-05-14T13:30:22;9.73;;;7.95;;
51006;SDS011;37034;47.886;-3.904;2023-05-14T13:32:48;13.95;;;7.30;;
51006;SDS011;37034;47.886;-3.904;2023-05-14T13:35:14;12.73;;;7.20;;
51006;SDS011;37034;47.886;-3.904;2023-05-14T13:37:41;10.52;;;8.25;;
51006;SDS011;37034;47.886;-3.904;2023-05-14T13:40:07;11.73;;;8.55;;
51006;SDS011;37034;47.886;-3.904;2023-05-14T13:42:34;13.10;;;9.40;;
51006;SDS011;37034;47.886;-3.904;2023-05-14T13:45:01;11.35;;;8.77;;
51006;SDS011;37034;47.886;-3.904;2023-05-14T13:47:28;13.90;;;8.75;;
51006;SDS011;37034;47.886;-3.904;2023-05-14T13:49:53;13.25;;;9.38;;
51006;SDS011;37034;47.886;-3.904;2023-05-14T13:52:20;13.07;;;9.50;;
51006;SDS011;37034;47.886;-3.904;2023-05-14T13:54:46;9.93;;;8.30;;
51006;SDS011;37034;47.886;-3.904;2023-05-14T13:57:12;14.02;;;7.75;;
51006;SDS011;37034;47.886;-3.904;2023-05-14T13:59:38;10.90;;;9.30;;
51006;SDS011;37034;47.886;-3.904;2023-05-14T14:02:04;12.00;;;8.02;;
51006;SDS011;37034;47.886;-3.904;2023-05-14T14:04:30;12.13;;;7.55;;
51006;SDS011;37034;47.886;-3.904;2023-05-14T14:06:56;12.35;;;7.25;;
51006;SDS011;37034;47.886;-3.904;2023-05-14T14:09:27;10.77;;;7.32;;
51006;SDS011;37034;47.886;-3.904;2023-05-14T14:12:12;11.30;;;7.57;;
51006;SDS011;37034;47.886;-3.904;2023-05-14T14:14:38;10.40;;;6.28;;
51006;SDS011;37034;47.886;-3.904;2023-05-14T14:17:04;7.57;;;5.70;;
51006;SDS011;37034;47.886;-3.904;2023-05-14T14:19:29;13.93;;;7.35;;
51006;SDS011;37034;47.886;-3.904;2023-05-14T14:21:55;10.10;;;5.88;;
51006;SDS011;37034;47.886;-3.904;2023-05-14T14:24:21;10.05;;;5.95;;
51006;SDS011;37034;47.886;-3.904;2023-05-14T14:26:46;10.23;;;7.55;;
51006;SDS011;37034;47.886;-3.904;2023-05-14T14:29:12;10.88;;;7.22;;
51006;SDS011;37034;47.886;-3.904;2023-05-14T14:31:38;10.02;;;6.25;;
51006;SDS011;37034;47.886;-3.904;2023-05-14T14:34:04;9.63;;;6.20;;
51006;SDS011;37034;47.886;-3.904;2023-05-14T14:36:30;7.47;;;5.85;;
51006;SDS011;37034;47.886;-3.904;2023-05-14T14:38:55;7.60;;;5.05;;
51006;SDS011;37034;47.886;-3.904;2023-05-14T14:43:47;7.78;;;4.25;;
51006;SDS011;37034;47.886;-3.904;2023-05-14T14:46:13;10.48;;;5.10;;
51006;SDS011;37034;47.886;-3.904;2023-05-14T14:48:39;7.57;;;4.32;;
51006;SDS011;37034;47.886;-3.904;2023-05-14T14:51:06;5.82;;;3.90;;
51006;SDS011;37034;47.886;-3.904;2023-05-14T14:53:33;11.73;;;3.63;;